Time;durP1;ratioP1;P1;durP2;ratioP2;P2;SDS_P1;SDS_P2;PMS_P1;PMS_P2;Temp;Humidity;BMP_temperature;BMP_pressure;BME280_temperature;BME280_humidity;BME280_pressure;Samples;Min_cycle;Max_cycle;Signal;HPM_P1;HPM_P2
2023/01/09 00:01:11;;;;;;;2.75;2.63;;;;;;;;;;5055297;28;20601;-91
2023/01/09 00:03:39;;;;;;;2.28;2.15;;;;;;;;;;5056099;28;20045;-92
2023/01/09 00:06:05;;;;;;;1.77;1.67;;;;;;;;;;5056143;28;20045;-91
2023/01/09 00:08:32;;;;;;;1.10;1.10;;;;;;;;;;5056248;28;20053;-92
2023/01/09 00:10:58;;;;;;;0.68;0.68;;;;;;;;;;5055703;28;20057;-92
2023/01/09 00:13:25;;;;;;;1.58;1.50;;;;;;;;;;5055961;28;20052;-92
2023/01/09 00:15:51;;;;;;;1.65;1.30;;;;;;;;;;5056319;28;20456;-91
2023/01/09 00:18:18;;;;;;;1.20;1.20;;;;;;;;;;5055901;28;20090;-91
2023/01/09 00:20:46;;;;;;;2.13;2.00;;;;;;;;;;5056100;28;20471;-91
2023/01/09 00:23:12;;;;;;;1.35;1.30;;;;;;;;;;5055320;28;20044;-91
2023/01/09 00:25:39;;;;;;;1.45;1.42;;;;;;;;;;5055386;28;20723;-91
2023/01/09 00:28:06;;;;;;;3.25;3.05;;;;;;;;;;5054912;28;20049;-91
2023/01/09 00:30:32;;;;;;;0.80;0.80;;;;;;;;;;5055605;28;20040;-91
2023/01/09 00:32:59;;;;;;;2.20;2.08;;;;;;;;;;5055850;28;20048;-91
2023/01/09 00:35:27;;;;;;;1.92;1.83;;;;;;;;;;5055357;28;20523;-91
2023/01/09 00:37:55;;;;;;;2.70;2.60;;;;;;;;;;5055113;28;20103;-91
2023/01/09 00:40:21;;;;;;;0.50;0.50;;;;;;;;;;5055693;28;20118;-91
2023/01/09 00:42:50;;;;;;;1.48;1.40;;;;;;;;;;5055563;28;20045;-91
2023/01/09 00:45:18;;;;;;;2.25;2.13;;;;;;;;;;5055032;28;20048;-91
2023/01/09 00:47:47;;;;;;;2.22;2.13;;;;;;;;;;5055208;28;20128;-91
2023/01/09 00:50:15;;;;;;;2.60;1.63;;;;;;;;;;5055271;28;20102;-91
2023/01/09 00:52:42;;;;;;;1.33;1.02;;;;;;;;;;5055175;28;20041;-91
2023/01/09 00:55:10;;;;;;;1.13;1.02;;;;;;;;;;5055314;28;20057;-91
2023/01/09 00:57:36;;;;;;;1.70;1.35;;;;;;;;;;5055159;28;20053;-91
2023/01/09 01:00:03;;;;;;;1.02;1.02;;;;;;;;;;5055008;28;20052;-92
2023/01/09 01:02:30;;;;;;;3.10;2.88;;;;;;;;;;5054946;28;20049;-91
2023/01/09 01:07:41;;;;;;;1.08;1.08;;;;;;;;;;5054736;28;20060;-91
2023/01/09 01:10:11;;;;;;;0.43;0.43;;;;;;;;;;5054246;28;20620;-91
2023/01/09 01:12:38;;;;;;;1.90;1.80;;;;;;;;;;5054981;28;20048;-91
2023/01/09 01:15:05;;;;;;;1.75;1.65;;;;;;;;;;5054869;28;20049;-91
2023/01/09 01:17:33;;;;;;;2.38;2.28;;;;;;;;;;5054463;28;20048;-91
2023/01/09 01:19:59;;;;;;;1.63;1.20;;;;;;;;;;5054623;28;20049;-92
2023/01/09 01:22:26;;;;;;;1.63;1.52;;;;;;;;;;5054556;28;20040;-91
2023/01/09 01:24:52;;;;;;;2.95;2.20;;;;;;;;;;5054288;28;20735;-91
2023/01/09 01:27:20;;;;;;;1.15;1.05;;;;;;;;;;5054495;28;20049;-91
2023/01/09 01:29:47;;;;;;;2.80;2.58;;;;;;;;;;5054366;28;20088;-90
2023/01/09 01:32:13;;;;;;;2.17;1.60;;;;;;;;;;5054430;28;20118;-91
2023/01/09 01:34:40;;;;;;;2.17;2.08;;;;;;;;;;5054098;28;20053;-91
2023/01/09 01:37:07;;;;;;;1.88;1.77;;;;;;;;;;5054000;28;20091;-91
2023/01/09 01:39:33;;;;;;;3.53;3.22;;;;;;;;;;5053793;28;20493;-91
2023/01/09 01:42:00;;;;;;;2.63;2.42;;;;;;;;;;5053554;28;20378;-91
2023/01/09 01:44:44;;;;;;;1.38;1.27;;;;;;;;;;5053951;28;20098;-91
2023/01/09 01:47:13;;;;;;;2.75;2.55;;;;;;;;;;5053843;28;20079;-90
2023/01/09 01:49:39;;;;;;;3.33;2.22;;;;;;;;;;5054239;28;20057;-91
2023/01/09 01:52:06;;;;;;;1.23;1.20;;;;;;;;;;5053752;28;20451;-91
2023/01/09 01:54:33;;;;;;;2.10;1.92;;;;;;;;;;5053456;28;20098;-91
2023/01/09 01:57:02;;;;;;;1.92;1.83;;;;;;;;;;5054014;28;20128;-90
2023/01/09 01:59:33;;;;;;;1.48;1.40;;;;;;;;;;5053937;28;20053;-90
2023/01/09 02:02:00;;;;;;;1.65;1.55;;;;;;;;;;5053829;28;20103;-91
2023/01/09 02:04:29;;;;;;;2.40;2.22;;;;;;;;;;5053593;28;20044;-91
2023/01/09 02:06:56;;;;;;;1.92;1.83;;;;;;;;;;5053587;28;20546;-91
2023/01/09 02:09:24;;;;;;;4.32;4.13;;;;;;;;;;5053767;28;20470;-91
2023/01/09 02:11:51;;;;;;;1.80;1.70;;;;;;;;;;5053426;28;20102;-90
2023/01/09 02:14:19;;;;;;;1.95;1.85;;;;;;;;;;5053086;28;20041;-90
2023/01/09 02:16:51;;;;;;;4.07;3.67;;;;;;;;;;5053577;28;20397;-91
2023/01/09 02:19:27;;;;;;;4.28;3.97;;;;;;;;;;5053329;28;20102;-91
2023/01/09 02:22:02;;;;;;;1.45;1.42;;;;;;;;;;5053258;28;20041;-91
2023/01/09 02:24:36;;;;;;;3.03;2.78;;;;;;;;;;5053395;28;20454;-90
2023/01/09 02:27:13;;;;;;;3.35;1.98;;;;;;;;;;5053468;28;20045;-90
2023/01/09 02:29:45;;;;;;;0.95;0.95;;;;;;;;;;5053130;28;20102;-90
2023/01/09 02:32:19;;;;;;;4.10;3.80;;;;;;;;;;5051788;28;20103;-90
2023/01/09 02:34:51;;;;;;;1.88;1.77;;;;;;;;;;5053100;28;20049;-90
2023/01/09 02:37:22;;;;;;;0.30;0.30;;;;;;;;;;5053155;28;20107;-91
2023/01/09 02:39:52;;;;;;;1.83;1.70;;;;;;;;;;5053394;28;20123;-91
2023/01/09 02:42:19;;;;;;;2.55;2.35;;;;;;;;;;5053313;28;20118;-91
2023/01/09 02:44:46;;;;;;;1.67;1.58;;;;;;;;;;5053357;28;20095;-91
2023/01/09 02:47:28;;;;;;;1.05;1.05;;;;;;;;;;5052720;28;20550;-90
2023/01/09 02:49:56;;;;;;;3.78;1.70;;;;;;;;;;5052454;28;20056;-90
2023/01/09 02:52:28;;;;;;;1.75;1.65;;;;;;;;;;5053968;28;20041;-90
2023/01/09 02:55:01;;;;;;;1.42;1.33;;;;;;;;;;5057252;28;20110;-91
2023/01/09 02:57:34;;;;;;;2.50;2.25;;;;;;;;;;5057471;28;20056;-90
2023/01/09 03:00:08;;;;;;;1.83;1.70;;;;;;;;;;5056962;28;20543;-90
2023/01/09 03:02:44;;;;;;;1.80;1.70;;;;;;;;;;5056882;28;20095;-90
2023/01/09 03:05:17;;;;;;;1.42;1.35;;;;;;;;;;5057086;28;20056;-90
2023/01/09 03:07:48;;;;;;;3.50;2.15;;;;;;;;;;5056825;28;20504;-90
2023/01/09 03:10:18;;;;;;;3.13;2.25;;;;;;;;;;5056833;28;20411;-90
2023/01/09 03:12:45;;;;;;;0.85;0.85;;;;;;;;;;5057191;28;20041;-90
2023/01/09 03:15:13;;;;;;;1.02;1.02;;;;;;;;;;5056578;28;20048;-90
2023/01/09 03:17:41;;;;;;;0.55;0.55;;;;;;;;;;5057124;28;20060;-89
2023/01/09 03:20:10;;;;;;;1.23;1.08;;;;;;;;;;5056104;28;20094;-91
2023/01/09 03:22:38;;;;;;;1.10;1.08;;;;;;;;;;5056844;28;20095;-90
2023/01/09 03:25:05;;;;;;;1.88;1.73;;;;;;;;;;5056822;28;20057;-91
2023/01/09 03:27:32;;;;;;;1.15;1.15;;;;;;;;;;5056636;28;20053;-91
2023/01/09 03:29:58;;;;;;;2.30;2.17;;;;;;;;;;5056795;28;20045;-91
2023/01/09 03:32:26;;;;;;;3.22;3.08;;;;;;;;;;5056767;28;20443;-91
2023/01/09 03:34:53;;;;;;;4.07;3.33;;;;;;;;;;5056426;28;20049;-91
2023/01/09 03:37:19;;;;;;;1.90;1.80;;;;;;;;;;5056456;28;20114;-91
2023/01/09 03:39:47;;;;;;;1.52;1.48;;;;;;;;;;5056373;28;20049;-91
2023/01/09 03:42:14;;;;;;;3.50;3.20;;;;;;;;;;5056472;28;20052;-91
2023/01/09 03:44:40;;;;;;;2.35;2.15;;;;;;;;;;5056401;28;20515;-91
2023/01/09 03:47:07;;;;;;;0.32;0.32;;;;;;;;;;5056500;28;20052;-91
2023/01/09 03:49:33;;;;;;;3.17;1.55;;;;;;;;;;5055915;28;20057;-91
2023/01/09 03:52:00;;;;;;;1.05;1.05;;;;;;;;;;5055962;28;20144;-92
2023/01/09 03:54:26;;;;;;;0.30;0.30;;;;;;;;;;5056618;28;20052;-91
2023/01/09 03:56:54;;;;;;;3.45;3.15;;;;;;;;;;5056306;28;20045;-91
2023/01/09 03:59:20;;;;;;;2.15;2.05;;;;;;;;;;5056209;28;20056;-91
2023/01/09 04:01:47;;;;;;;1.88;1.27;;;;;;;;;;5056208;28;20049;-91
2023/01/09 04:04:13;;;;;;;0.93;0.93;;;;;;;;;;5055157;28;20378;-91
2023/01/09 04:06:40;;;;;;;0.60;0.60;;;;;;;;;;5056135;28;20107;-90
2023/01/09 04:09:06;;;;;;;2.25;2.10;;;;;;;;;;5055928;28;20459;-90
2023/01/09 04:11:33;;;;;;;1.27;1.25;;;;;;;;;;5055526;28;20049;-87
2023/01/09 04:14:01;;;;;;;3.50;3.22;;;;;;;;;;5055411;28;20091;-89
2023/01/09 04:16:27;;;;;;;2.72;2.63;;;;;;;;;;5055760;28;20103;-89
2023/01/09 04:18:54;;;;;;;0.52;0.52;;;;;;;;;;5055579;28;20130;-89
2023/01/09 04:21:20;;;;;;;1.23;1.13;;;;;;;;;;5055445;28;20048;-90
2023/01/09 04:23:47;;;;;;;1.17;1.15;;;;;;;;;;5055641;28;20049;-90
2023/01/09 04:26:13;;;;;;;1.45;1.35;;;;;;;;;;5056980;28;20122;-90
2023/01/09 04:28:40;;;;;;;0.93;0.93;;;;;;;;;;5055452;28;20045;-90
2023/01/09 04:31:09;;;;;;;5.32;4.90;;;;;;;;;;5055220;28;20049;-90
2023/01/09 04:33:35;;;;;;;0.75;0.75;;;;;;;;;;5055235;28;20049;-91
2023/01/09 04:36:02;;;;;;;3.03;2.83;;;;;;;;;;5055487;28;20052;-90
2023/01/09 04:38:28;;;;;;;3.00;2.80;;;;;;;;;;5055491;28;20091;-90
2023/01/09 04:40:55;;;;;;;0.60;0.60;;;;;;;;;;5055513;28;20044;-90
2023/01/09 04:43:21;;;;;;;0.47;0.47;;;;;;;;;;5055323;28;20045;-90
2023/01/09 04:45:48;;;;;;;3.97;3.78;;;;;;;;;;5054903;28;20452;-90
2023/01/09 04:48:15;;;;;;;0.68;0.68;;;;;;;;;;5055296;28;20099;-90
2023/01/09 04:50:42;;;;;;;1.08;1.08;;;;;;;;;;5055079;28;20087;-90
2023/01/09 04:53:08;;;;;;;1.83;1.73;;;;;;;;;;5055223;28;20041;-90
2023/01/09 04:55:35;;;;;;;0.82;0.82;;;;;;;;;;5055417;28;20049;-90
2023/01/09 04:58:01;;;;;;;1.55;1.40;;;;;;;;;;5054690;28;20103;-90
2023/01/09 05:00:28;;;;;;;0.60;0.60;;;;;;;;;;5055365;28;20083;-90
2023/01/09 05:02:55;;;;;;;1.85;1.75;;;;;;;;;;5054524;28;20550;-91
2023/01/09 05:05:23;;;;;;;0.50;0.50;;;;;;;;;;5054893;28;20059;-90
2023/01/09 05:07:50;;;;;;;2.70;2.50;;;;;;;;;;5054647;28;20055;-91
2023/01/09 05:10:16;;;;;;;3.03;1.27;;;;;;;;;;5054920;28;20103;-91
2023/01/09 05:12:43;;;;;;;0.77;0.77;;;;;;;;;;5054779;28;20493;-91
2023/01/09 05:15:10;;;;;;;2.30;2.10;;;;;;;;;;5053805;28;20053;-90
2023/01/09 05:17:36;;;;;;;2.47;1.92;;;;;;;;;;5055145;28;20056;-90
2023/01/09 05:20:03;;;;;;;3.90;2.15;;;;;;;;;;5053918;28;20550;-90
2023/01/09 05:22:31;;;;;;;2.08;1.95;;;;;;;;;;5054626;28;20045;-91
2023/01/09 05:24:57;;;;;;;3.25;2.75;;;;;;;;;;5054607;28;20049;-90
2023/01/09 05:27:26;;;;;;;0.93;0.93;;;;;;;;;;5054666;28;20048;-91
2023/01/09 05:29:52;;;;;;;1.25;1.25;;;;;;;;;;5054190;28;20562;-89
2023/01/09 05:32:19;;;;;;;1.27;1.25;;;;;;;;;;5054182;28;20106;-89
2023/01/09 05:34:45;;;;;;;1.33;1.27;;;;;;;;;;5053957;28;20449;-89
2023/01/09 05:37:11;;;;;;;0.73;0.73;;;;;;;;;;5054045;28;20041;-89
2023/01/09 05:39:39;;;;;;;1.13;1.13;;;;;;;;;;5053803;28;20049;-89
2023/01/09 05:42:06;;;;;;;2.38;2.28;;;;;;;;;;5053715;28;20045;-89
2023/01/09 05:44:32;;;;;;;0.38;0.38;;;;;;;;;;5054250;28;20045;-89
2023/01/09 05:46:59;;;;;;;1.17;1.15;;;;;;;;;;5053616;28;20049;-90
2023/01/09 05:49:25;;;;;;;0.57;0.57;;;;;;;;;;5054057;28;20049;-90
2023/01/09 05:51:52;;;;;;;0.57;0.57;;;;;;;;;;5053639;28;20099;-90
2023/01/09 05:54:18;;;;;;;0.45;0.45;;;;;;;;;;5053872;28;20049;-90
2023/01/09 05:56:46;;;;;;;0.73;0.73;;;;;;;;;;5053686;28;20061;-90
2023/01/09 05:59:13;;;;;;;2.53;1.63;;;;;;;;;;5053941;28;20389;-90
2023/01/09 06:01:39;;;;;;;0.77;0.77;;;;;;;;;;5053652;28;20110;-90
2023/01/09 06:04:06;;;;;;;5.35;3.15;;;;;;;;;;5053654;28;20098;-90
2023/01/09 06:06:32;;;;;;;0.43;0.43;;;;;;;;;;5053566;28;20493;-92
2023/01/09 06:08:59;;;;;;;0.50;0.50;;;;;;;;;;5053797;28;20102;-91
2023/01/09 06:11:25;;;;;;;2.83;2.72;;;;;;;;;;5053385;28;20432;-92
2023/01/09 06:13:53;;;;;;;4.20;2.20;;;;;;;;;;5053680;28;20103;-92
2023/01/09 06:16:19;;;;;;;2.42;2.33;;;;;;;;;;5053459;28;20106;-92
2023/01/09 06:18:46;;;;;;;4.88;4.68;;;;;;;;;;5054080;28;20052;-91
2023/01/09 06:21:12;;;;;;;0.77;0.77;;;;;;;;;;5053451;28;20052;-91
2023/01/09 06:23:39;;;;;;;1.17;0.98;;;;;;;;;;5053313;28;20203;-89
2023/01/09 06:26:05;;;;;;;3.50;3.30;;;;;;;;;;5052213;28;20049;-89
2023/01/09 06:28:32;;;;;;;1.20;1.20;;;;;;;;;;5052776;28;20075;-88
2023/01/09 06:31:00;;;;;;;1.17;1.08;;;;;;;;;;5053404;28;20459;-88
2023/01/09 06:33:26;;;;;;;2.45;2.35;;;;;;;;;;5051426;28;20044;-90
2023/01/09 06:35:53;;;;;;;1.05;1.02;;;;;;;;;;5052789;28;20053;-89
2023/01/09 06:38:19;;;;;;;0.50;0.50;;;;;;;;;;5052635;28;20064;-89
2023/01/09 06:40:46;;;;;;;0.75;0.75;;;;;;;;;;5053036;28;20178;-89
2023/01/09 06:43:12;;;;;;;1.80;1.67;;;;;;;;;;5050999;28;20102;-90
2023/01/09 06:45:39;;;;;;;1.02;1.00;;;;;;;;;;5047602;28;20493;-88
2023/01/09 06:48:07;;;;;;;3.88;3.75;;;;;;;;;;5051826;28;20067;-88
2023/01/09 06:50:33;;;;;;;5.70;4.32;;;;;;;;;;5052362;28;20056;-88
2023/01/09 06:53:00;;;;;;;3.67;3.42;;;;;;;;;;5052635;28;20178;-88
2023/01/09 06:55:26;;;;;;;1.40;1.35;;;;;;;;;;5052650;28;20049;-89
2023/01/09 06:57:53;;;;;;;3.65;2.83;;;;;;;;;;5052789;28;20049;-89
2023/01/09 07:00:20;;;;;;;4.43;2.45;;;;;;;;;;5052483;28;20481;-89
2023/01/09 07:02:46;;;;;;;1.38;1.30;;;;;;;;;;5051877;28;20056;-90
2023/01/09 07:05:14;;;;;;;6.88;6.57;;;;;;;;;;5051744;28;20550;-89
2023/01/09 07:07:41;;;;;;;7.43;2.33;;;;;;;;;;5052442;28;20057;-89
2023/01/09 07:10:08;;;;;;;3.80;3.58;;;;;;;;;;5051769;28;21508;-88
2023/01/09 07:12:34;;;;;;;3.42;3.13;;;;;;;;;;5052476;28;20057;-89
2023/01/09 07:15:01;;;;;;;2.25;2.15;;;;;;;;;;5052574;28;20045;-86
2023/01/09 07:17:27;;;;;;;6.97;4.88;;;;;;;;;;5052102;28;20099;-88
2023/01/09 07:19:54;;;;;;;7.20;6.53;;;;;;;;;;5052532;28;20053;-88
2023/01/09 07:22:22;;;;;;;5.68;5.22;;;;;;;;;;5052208;28;20489;-88
2023/01/09 07:24:48;;;;;;;3.22;2.90;;;;;;;;;;5052518;28;20045;-88
2023/01/09 07:27:15;;;;;;;3.05;2.85;;;;;;;;;;5052211;28;20451;-88
2023/01/09 07:29:41;;;;;;;2.38;1.83;;;;;;;;;;5054155;28;20114;-88
2023/01/09 07:32:08;;;;;;;3.70;3.42;;;;;;;;;;5053558;28;20122;-87
2023/01/09 07:34:34;;;;;;;4.43;4.07;;;;;;;;;;5052059;28;20053;-88
2023/01/09 07:37:01;;;;;;;3.50;3.22;;;;;;;;;;5052174;28;20053;-89
2023/01/09 07:39:29;;;;;;;7.70;6.28;;;;;;;;;;5054304;28;20098;-88
2023/01/09 07:41:55;;;;;;;3.05;2.88;;;;;;;;;;5055370;28;20531;-89
2023/01/09 07:44:22;;;;;;;5.53;2.67;;;;;;;;;;5045236;28;20132;-89
2023/01/09 07:46:48;;;;;;;2.45;2.35;;;;;;;;;;5035630;28;20049;-89
2023/01/09 07:49:15;;;;;;;1.05;0.95;;;;;;;;;;5035577;28;20108;-89
2023/01/09 07:51:43;;;;;;;4.38;4.07;;;;;;;;;;5035377;28;20064;-89
2023/01/09 07:54:10;;;;;;;6.38;4.57;;;;;;;;;;5035754;28;20131;-89
2023/01/09 07:56:38;;;;;;;3.40;3.13;;;;;;;;;;5035611;28;20049;-89
2023/01/09 07:59:04;;;;;;;3.33;3.05;;;;;;;;;;5035602;28;20045;-88
2023/01/09 08:01:31;;;;;;;11.20;10.40;;;;;;;;;;5035110;28;20563;-90
2023/01/09 08:03:57;;;;;;;6.22;5.80;;;;;;;;;;5035318;28;20076;-89
2023/01/09 08:06:24;;;;;;;13.05;12.13;;;;;;;;;;5035442;28;20491;-89
2023/01/09 08:08:50;;;;;;;7.13;6.53;;;;;;;;;;5035134;28;20096;-90
2023/01/09 08:11:17;;;;;;;11.65;6.97;;;;;;;;;;5035045;28;20452;-89
2023/01/09 08:13:45;;;;;;;8.82;8.02;;;;;;;;;;5035232;28;20049;-89
2023/01/09 08:16:11;;;;;;;5.00;4.70;;;;;;;;;;5035048;28;20049;-90
2023/01/09 08:18:38;;;;;;;6.93;6.28;;;;;;;;;;5035294;28;20056;-90
2023/01/09 08:21:05;;;;;;;10.20;6.68;;;;;;;;;;5038005;28;20049;-90
2023/01/09 08:23:31;;;;;;;5.53;4.65;;;;;;;;;;5055420;28;20483;-91
2023/01/09 08:25:58;;;;;;;10.32;9.43;;;;;;;;;;5055337;28;20056;-90
2023/01/09 08:28:24;;;;;;;8.10;6.90;;;;;;;;;;5055273;28;20048;-90
2023/01/09 08:30:52;;;;;;;11.02;7.22;;;;;;;;;;5035469;28;20045;-90
2023/01/09 08:33:19;;;;;;;6.28;5.53;;;;;;;;;;5035370;28;20100;-90
2023/01/09 08:35:45;;;;;;;7.47;6.88;;;;;;;;;;5035158;28;20528;-90
2023/01/09 08:38:12;;;;;;;10.23;9.35;;;;;;;;;;5035055;28;20053;-89
2023/01/09 08:40:38;;;;;;;4.72;4.32;;;;;;;;;;5035232;28;20095;-89
2023/01/09 08:48:36;;;;;;;7.03;6.47;;;;;;;;;;5034795;28;20571;-90
2023/01/09 08:51:02;;;;;;;6.22;5.80;;;;;;;;;;5034999;28;20065;-90
2023/01/09 08:53:30;;;;;;;4.38;4.05;;;;;;;;;;5035077;28;20041;-89
2023/01/09 08:55:56;;;;;;;5.25;4.97;;;;;;;;;;5034719;28;20400;-89
2023/01/09 08:58:23;;;;;;;14.75;6.25;;;;;;;;;;5034879;28;20053;-89
2023/01/09 09:00:49;;;;;;;8.23;7.53;;;;;;;;;;5034862;28;20046;-91
2023/01/09 09:03:17;;;;;;;7.20;6.63;;;;;;;;;;5035087;28;20057;-91
2023/01/09 09:05:44;;;;;;;5.40;5.00;;;;;;;;;;5052264;28;20041;-92
2023/01/09 09:08:11;;;;;;;17.23;10.73;;;;;;;;;;5055008;28;20114;-92
2023/01/09 09:10:37;;;;;;;8.45;7.63;;;;;;;;;;5055388;28;20049;-92
2023/01/09 09:13:04;;;;;;;10.15;5.68;;;;;;;;;;5054592;28;20053;-93
2023/01/09 09:15:33;;;;;;;6.18;5.72;;;;;;;;;;5054533;28;20106;-93
2023/01/09 09:18:00;;;;;;;9.88;7.25;;;;;;;;;;5054322;28;20056;-92
2023/01/09 09:20:31;;;;;;;6.93;6.32;;;;;;;;;;5054489;28;20056;-93
2023/01/09 09:22:57;;;;;;;6.38;5.82;;;;;;;;;;5054556;28;20048;-92
2023/01/09 09:25:24;;;;;;;4.47;3.70;;;;;;;;;;5054457;28;20048;-92
2023/01/09 09:27:51;;;;;;;7.90;6.10;;;;;;;;;;5054538;28;20386;-92
2023/01/09 09:30:18;;;;;;;0.93;0.85;;;;;;;;;;5054281;28;20049;-92
2023/01/09 09:32:45;;;;;;;1.45;1.35;;;;;;;;;;5055131;28;20048;-92
2023/01/09 09:35:11;;;;;;;3.38;3.08;;;;;;;;;;5054494;28;20099;-93
2023/01/09 09:37:39;;;;;;;3.88;3.03;;;;;;;;;;5054156;28;20049;-92
2023/01/09 09:40:07;;;;;;;4.00;2.60;;;;;;;;;;5054133;28;20094;-92
2023/01/09 09:45:33;;;;;;;3.65;3.45;;;;;;;;;;5053808;28;20122;-92
2023/01/09 09:48:10;;;;;;;3.65;2.45;;;;;;;;;;5054277;28;20110;-92
2023/01/09 09:50:47;;;;;;;3.75;3.53;;;;;;;;;;5055009;28;20119;-91
2023/01/09 09:53:17;;;;;;;3.90;3.60;;;;;;;;;;5052906;28;20120;-91
2023/01/09 09:55:46;;;;;;;4.75;3.25;;;;;;;;;;5054094;28;20049;-91
2023/01/09 09:58:15;;;;;;;5.65;5.25;;;;;;;;;;5054045;28;20386;-91
2023/01/09 10:00:42;;;;;;;5.60;2.75;;;;;;;;;;5053703;28;20049;-91
2023/01/09 10:03:11;;;;;;;3.22;3.00;;;;;;;;;;5053943;28;20045;-90
2023/01/09 10:05:40;;;;;;;4.60;3.95;;;;;;;;;;5053368;28;20090;-90
2023/01/09 10:08:11;;;;;;;3.00;2.50;;;;;;;;;;5053431;28;20099;-92
2023/01/09 10:10:41;;;;;;;4.07;3.70;;;;;;;;;;5041278;28;20096;-91
2023/01/09 10:15:51;;;;;;;6.15;5.75;;;;;;;;;;5052989;28;20378;-91
2023/01/09 10:18:23;;;;;;;4.32;4.13;;;;;;;;;;5053507;28;20122;-90
2023/01/09 10:20:57;;;;;;;4.30;4.07;;;;;;;;;;5053492;28;20130;-91
2023/01/09 10:23:36;;;;;;;4.47;3.00;;;;;;;;;;5053121;28;20579;-91
2023/01/09 10:26:06;;;;;;;3.50;3.20;;;;;;;;;;5053065;28;20049;-91
2023/01/09 10:28:48;;;;;;;2.95;2.70;;;;;;;;;;5053316;28;20061;-90
2023/01/09 10:31:17;;;;;;;3.53;2.90;;;;;;;;;;5051091;28;20053;-90
2023/01/09 10:33:52;;;;;;;3.60;2.67;;;;;;;;;;5053152;28;20044;-90
2023/01/09 10:36:27;;;;;;;4.15;3.85;;;;;;;;;;5053497;28;20049;-90
2023/01/09 10:38:56;;;;;;;5.93;5.45;;;;;;;;;;5050888;28;20408;-90
2023/01/09 10:41:25;;;;;;;6.40;4.72;;;;;;;;;;5053334;28;20045;-91
2023/01/09 10:43:57;;;;;;;2.63;2.42;;;;;;;;;;5053365;28;20052;-90
2023/01/09 10:46:25;;;;;;;3.42;3.13;;;;;;;;;;5053184;28;20044;-90
2023/01/09 10:48:55;;;;;;;3.20;3.00;;;;;;;;;;5052695;28;20049;-91
2023/01/09 10:51:22;;;;;;;2.55;2.03;;;;;;;;;;5053146;28;20049;-92
2023/01/09 10:53:51;;;;;;;2.75;2.55;;;;;;;;;;5053592;28;20071;-91
2023/01/09 10:56:20;;;;;;;4.07;3.88;;;;;;;;;;5053018;28;20481;-90
2023/01/09 10:58:49;;;;;;;3.78;3.58;;;;;;;;;;5053268;28;20049;-91
2023/01/09 11:01:16;;;;;;;2.50;2.30;;;;;;;;;;5053079;28;20132;-90
2023/01/09 11:03:42;;;;;;;2.08;1.75;;;;;;;;;;5052766;28;20091;-91
2023/01/09 11:06:18;;;;;;;2.42;2.33;;;;;;;;;;5052757;28;20045;-90
2023/01/09 11:08:45;;;;;;;3.72;2.72;;;;;;;;;;5053139;28;20061;-90
2023/01/09 11:11:12;;;;;;;3.28;2.72;;;;;;;;;;5053114;28;20049;-90
2023/01/09 11:13:44;;;;;;;3.88;2.70;;;;;;;;;;5054225;28;20049;-89
2023/01/09 11:16:17;;;;;;;3.28;3.15;;;;;;;;;;5056858;28;20049;-91
2023/01/09 11:18:49;;;;;;;2.22;2.03;;;;;;;;;;5056702;28;20554;-90
2023/01/09 11:21:26;;;;;;;3.92;3.15;;;;;;;;;;5056922;28;20114;-89
2023/01/09 11:23:52;;;;;;;;;;;;;;;;;;5057353;28;20127;-91
2023/01/09 11:26:23;;;;;;;2.63;2.30;;;;;;;;;;5055381;28;19928;-91
2023/01/09 11:29:07;;;;;;;2.55;2.45;;;;;;;;;;5056433;28;20619;-92
2023/01/09 11:31:35;;;;;;;4.05;3.85;;;;;;;;;;5056662;28;20089;-90
2023/01/09 11:34:02;;;;;;;2.92;2.67;;;;;;;;;;5056448;28;20420;-89
2023/01/09 11:36:28;;;;;;;5.50;4.75;;;;;;;;;;5056083;28;20069;-90
2023/01/09 11:38:56;;;;;;;2.95;2.53;;;;;;;;;;5056001;28;20049;-90
2023/01/09 11:41:24;;;;;;;4.13;3.85;;;;;;;;;;5056121;28;20049;-90
2023/01/09 11:43:51;;;;;;;4.18;3.80;;;;;;;;;;5056393;28;20489;-90
2023/01/09 11:46:40;;;;;;;2.97;2.75;;;;;;;;;;5056228;28;20040;-90
2023/01/09 11:49:21;;;;;;;4.15;3.90;;;;;;;;;;5051369;28;21440;-90
2023/01/09 11:52:03;;;;;;;4.95;4.00;;;;;;;;;;5056213;28;20055;-90
2023/01/09 11:54:31;;;;;;;4.82;3.17;;;;;;;;;;5055993;28;20049;-90
2023/01/09 11:56:58;;;;;;;5.88;5.50;;;;;;;;;;5056184;28;20048;-91
2023/01/09 11:59:25;;;;;;;3.50;3.30;;;;;;;;;;5055850;28;20114;-90
2023/01/09 12:02:04;;;;;;;4.00;3.72;;;;;;;;;;5056162;28;20118;-90
2023/01/09 12:04:35;;;;;;;2.53;2.33;;;;;;;;;;5056052;28;20052;-90
2023/01/09 12:07:01;;;;;;;;;;;;;;;;;;5056218;28;20048;-90
2023/01/09 12:09:34;;;;;;;4.30;3.83;;;;;;;;;;5055869;28;19921;-89
2023/01/09 12:12:05;;;;;;;5.53;4.07;;;;;;;;;;5055800;28;20053;-90
2023/01/09 12:14:35;;;;;;;2.38;2.25;;;;;;;;;;5055440;28;20604;-89
2023/01/09 12:17:12;;;;;;;3.35;3.13;;;;;;;;;;5055443;28;20094;-89
2023/01/09 12:19:57;;;;;;;4.30;2.80;;;;;;;;;;5055994;28;20049;-90
2023/01/09 12:22:29;;;;;;;3.85;3.30;;;;;;;;;;5055792;28;20130;-90
2023/01/09 12:25:04;;;;;;;4.25;3.47;;;;;;;;;;5054753;28;20107;-89
2023/01/09 12:27:38;;;;;;;3.55;3.33;;;;;;;;;;5055720;28;20049;-90
2023/01/09 12:30:15;;;;;;;4.38;3.97;;;;;;;;;;5055772;28;20053;-91
2023/01/09 12:32:47;;;;;;;3.03;2.83;;;;;;;;;;5055261;28;20489;-91
2023/01/09 12:35:21;;;;;;;4.32;4.07;;;;;;;;;;5054922;28;20534;-89
2023/01/09 12:38:11;;;;;;;4.68;4.38;;;;;;;;;;5054956;28;20091;-90
2023/01/09 12:40:45;;;;;;;4.95;4.55;;;;;;;;;;5039829;28;20063;-89
2023/01/09 12:43:17;;;;;;;2.67;2.47;;;;;;;;;;5055221;28;20058;-89
2023/01/09 12:45:51;;;;;;;3.35;3.15;;;;;;;;;;5054902;28;20049;-90
2023/01/09 12:48:25;;;;;;;3.20;3.05;;;;;;;;;;5055054;28;20053;-89
2023/01/09 12:51:03;;;;;;;2.45;2.25;;;;;;;;;;5055155;28;20451;-89
2023/01/09 12:53:32;;;;;;;3.85;3.65;;;;;;;;;;5055028;28;20463;-90
2023/01/09 12:56:01;;;;;;;4.75;4.40;;;;;;;;;;5055074;28;20053;-90
2023/01/09 12:58:37;;;;;;;4.68;4.10;;;;;;;;;;5054952;28;20049;-91
2023/01/09 13:01:06;;;;;;;1.92;1.83;;;;;;;;;;5054494;28;20454;-91
2023/01/09 13:03:35;;;;;;;2.90;2.72;;;;;;;;;;5054681;28;20547;-91
2023/01/09 13:06:05;;;;;;;3.90;3.60;;;;;;;;;;5054812;28;20055;-91
2023/01/09 13:08:34;;;;;;;3.90;3.60;;;;;;;;;;5054818;28;20053;-91
2023/01/09 13:11:04;;;;;;;3.35;3.15;;;;;;;;;;5054462;28;20049;-91
2023/01/09 13:13:34;;;;;;;3.10;2.80;;;;;;;;;;5054761;28;20439;-90
2023/01/09 13:16:01;;;;;;;7.95;3.25;;;;;;;;;;5054489;28;20049;-91
2023/01/09 13:18:31;;;;;;;3.45;3.25;;;;;;;;;;5054787;28;20045;-90
2023/01/09 13:20:58;;;;;;;3.60;3.30;;;;;;;;;;5053623;28;20103;-91
2023/01/09 13:23:30;;;;;;;2.55;2.42;;;;;;;;;;5054603;28;20045;-90
2023/01/09 13:25:58;;;;;;;3.40;3.15;;;;;;;;;;5054194;28;20090;-89
2023/01/09 13:28:27;;;;;;;3.33;2.45;;;;;;;;;;5054293;28;20676;-90
2023/01/09 13:31:04;;;;;;;3.33;3.13;;;;;;;;;;5054370;28;20135;-89
2023/01/09 13:33:32;;;;;;;5.30;4.90;;;;;;;;;;5047406;28;20061;-90
2023/01/09 13:36:01;;;;;;;4.85;4.45;;;;;;;;;;5053295;28;20045;-90
2023/01/09 13:38:30;;;;;;;3.08;2.88;;;;;;;;;;5054315;28;20059;-90
2023/01/09 13:43:56;;;;;;;3.58;3.38;;;;;;;;;;5054201;28;20258;-89
2023/01/09 13:46:23;;;;;;;1.85;1.75;;;;;;;;;;5054153;28;20049;-90
2023/01/09 13:48:50;;;;;;;4.00;3.70;;;;;;;;;;5053551;28;20106;-90
2023/01/09 13:51:35;;;;;;;2.30;2.17;;;;;;;;;;5053852;28;20122;-89
2023/01/09 13:54:03;;;;;;;1.73;1.63;;;;;;;;;;5054083;28;20679;-90
2023/01/09 13:56:29;;;;;;;4.70;4.38;;;;;;;;;;5053971;28;20432;-90
2023/01/09 13:59:04;;;;;;;2.28;2.15;;;;;;;;;;5054072;28;20048;-90
2023/01/09 14:01:44;;;;;;;4.68;4.30;;;;;;;;;;5054167;28;20512;-89
2023/01/09 14:04:25;;;;;;;2.17;1.98;;;;;;;;;;5054336;28;20128;-90
2023/01/09 14:07:07;;;;;;;2.85;2.65;;;;;;;;;;5041392;28;20044;-90
2023/01/09 14:09:36;;;;;;;2.78;2.60;;;;;;;;;;5053521;28;20045;-89
2023/01/09 14:12:04;;;;;;;4.68;4.32;;;;;;;;;;5042907;28;20073;-90
2023/01/09 14:14:33;;;;;;;3.17;2.97;;;;;;;;;;5034499;28;20053;-90
2023/01/09 14:17:02;;;;;;;3.97;3.70;;;;;;;;;;5034611;28;20125;-89
2023/01/09 14:19:39;;;;;;;4.30;3.70;;;;;;;;;;5034880;28;20060;-89
2023/01/09 14:22:05;;;;;;;;;;;;;;;;;;5045863;28;20056;-89
2023/01/09 14:24:33;;;;;;;2.92;2.75;;;;;;;;;;5053946;28;19924;-90
2023/01/09 14:27:01;;;;;;;5.38;2.58;;;;;;;;;;5053842;28;20045;-89
2023/01/09 14:29:42;;;;;;;4.32;3.55;;;;;;;;;;5053449;28;20048;-90
2023/01/09 14:32:26;;;;;;;4.45;4.10;;;;;;;;;;5052958;28;20091;-90
2023/01/09 14:34:56;;;;;;;3.08;2.83;;;;;;;;;;5031492;28;20403;-90
2023/01/09 14:37:23;;;;;;;3.65;2.95;;;;;;;;;;5053664;28;20045;-89
2023/01/09 14:39:50;;;;;;;3.80;3.60;;;;;;;;;;5052973;28;20048;-90
2023/01/09 14:42:21;;;;;;;3.30;2.17;;;;;;;;;;5053128;28;20492;-89
2023/01/09 14:44:50;;;;;;;3.65;3.35;;;;;;;;;;5052212;28;20106;-90
2023/01/09 14:47:19;;;;;;;2.85;2.65;;;;;;;;;;5054569;28;20450;-90
2023/01/09 14:49:50;;;;;;;2.60;2.47;;;;;;;;;;5059887;28;20057;-89
2023/01/09 14:52:21;;;;;;;3.58;3.28;;;;;;;;;;5059952;28;20056;-89
2023/01/09 14:54:48;;;;;;;3.67;2.97;;;;;;;;;;5059496;28;20110;-89
2023/01/09 14:57:26;;;;;;;2.22;2.13;;;;;;;;;;5059941;28;20094;-90
2023/01/09 14:59:56;;;;;;;2.97;2.08;;;;;;;;;;5059499;28;20053;-89
2023/01/09 15:02:26;;;;;;;2.13;1.88;;;;;;;;;;5059543;28;20106;-90
2023/01/09 15:04:53;;;;;;;3.47;2.30;;;;;;;;;;5059302;28;20060;-90
2023/01/09 15:07:22;;;;;;;3.47;3.28;;;;;;;;;;5059576;28;20451;-90
2023/01/09 15:09:48;;;;;;;2.50;2.30;;;;;;;;;;5058551;28;20087;-88